Cashmere, WA (98815)

9:39 AM PST on February 07, 2016 (GMT -0800)
Cashmere | | Change Station
CLOSE
Current Station
Personal Weather Station
Location: Cashmere, WA
Elevation: 784 ft
Nearby Weather Stations

Elev 784 ft 47.52 °N, 120.47 °W | Updated 5 minutes ago

Mostly Cloudy
Mostly Cloudy
32.5 °F
Feels Like 32 °F
N
1.1
Wind Variable Wind from WSW

Today
High -- | Low -- °F
--% Chance of Precip.
Yesterday
High -- | Low -- °F
Precip. -- in
Pressure 30.67 in
Visibility 10.0 miles
Clouds Mostly Cloudy 11000 ft
Windchill 32 °F
Dew Point 29 °F
Humidity 87%
Rainfall 0.00 in
Snow Depth Not available.
7:20 AM 5:12 PM
Waning Crescent, 1% visible
METAR KEAT 071655Z AUTO 27004KT 10SM BKN110 M01/M03 A3063 RMK AO2 SLP384 T10061033
Pressure 30.67 in
Visibility 10.0 miles
Clouds Mostly Cloudy 11000 ft
Windchill 32 °F
Dew Point 29 °F
Humidity 87%
Rainfall 0.00 in
Snow Depth Not available.
7:20 AM 5:12 PM
Waning Crescent, 1% visible
METAR KEAT 071655Z AUTO 27004KT 10SM BKN110 M01/M03 A3063 RMK AO2 SLP384 T10061033

10-Day Weather Forecast

Almanac

Astronomy

Feb. 07, 2016 Rise Set
Actual Time
Civil Twilight
Nautical Twilight
Astronomical Twilight
Moon
Length of Visible Light
Length of Day
Tomorrow will be .
, % of the Moon is Illuminated

Today's Extremes

State Highs State Lows

Community

WunderPhotos

Upload Photos

1,891,244 photos uploaded!

WunderBlog® & News

Nearby

Air Quality

  Air Quality AQ Index Pollutant
Not available.

Snow Depth

Station Depth Elevation

Earthquake Activity

City Distance Mag. Time & Date
Minimum magnitude displayed is 2.5.

Coastal Water Temperatures

Place Temperature

Stations

Nearby Weather Stations

Station Location Temp. Windchill Dew Point Humidity Wind Precip. Elev Updated Type
                   

Watches & Warnings

There are currently no watches in effect.